sensor_id;sensor_type;location;lat;lon;timestamp;P1;durP1;ratioP1;P2;durP2;ratioP2
34739;SDS011;20967;48.442;9.994;2022-07-03T00:00:51;6.97;;;3.00;;
34739;SDS011;20967;48.442;9.994;2022-07-03T00:03:21;8.10;;;4.05;;
34739;SDS011;20967;48.442;9.994;2022-07-03T00:05:48;8.35;;;3.77;;
34739;SDS011;20967;48.442;9.994;2022-07-03T00:08:16;4.03;;;2.27;;
34739;SDS011;20967;48.442;9.994;2022-07-03T00:10:44;4.03;;;2.60;;
34739;SDS011;20967;48.442;9.994;2022-07-03T00:13:13;3.37;;;2.25;;
34739;SDS011;20967;48.442;9.994;2022-07-03T00:15:41;4.53;;;2.67;;
34739;SDS011;20967;48.442;9.994;2022-07-03T00:18:10;5.28;;;2.62;;
34739;SDS011;20967;48.442;9.994;2022-07-03T00:20:44;4.80;;;2.87;;
34739;SDS011;20967;48.442;9.994;2022-07-03T00:23:09;6.15;;;3.20;;
34739;SDS011;20967;48.442;9.994;2022-07-03T00:25:37;5.00;;;2.98;;
34739;SDS011;20967;48.442;9.994;2022-07-03T00:28:06;4.08;;;3.20;;
34739;SDS011;20967;48.442;9.994;2022-07-03T00:30:35;5.45;;;3.22;;
34739;SDS011;20967;48.442;9.994;2022-07-03T00:33:03;7.10;;;3.40;;
34739;SDS011;20967;48.442;9.994;2022-07-03T00:35:34;4.15;;;3.25;;
34739;SDS011;20967;48.442;9.994;2022-07-03T00:38:02;5.25;;;3.37;;
34739;SDS011;20967;48.442;9.994;2022-07-03T00:40:29;3.95;;;3.05;;
34739;SDS011;20967;48.442;9.994;2022-07-03T00:42:57;5.12;;;3.15;;
34739;SDS011;20967;48.442;9.994;2022-07-03T00:45:27;6.28;;;3.30;;
34739;SDS011;20967;48.442;9.994;2022-07-03T00:47:58;5.22;;;3.17;;
34739;SDS011;20967;48.442;9.994;2022-07-03T00:50:26;6.20;;;3.52;;
34739;SDS011;20967;48.442;9.994;2022-07-03T00:52:54;5.42;;;2.98;;
34739;SDS011;20967;48.442;9.994;2022-07-03T00:55:23;5.17;;;3.27;;
34739;SDS011;20967;48.442;9.994;2022-07-03T00:57:52;4.87;;;3.22;;
34739;SDS011;20967;48.442;9.994;2022-07-03T01:00:23;4.22;;;3.00;;
34739;SDS011;20967;48.442;9.994;2022-07-03T01:02:55;4.58;;;3.05;;
34739;SDS011;20967;48.442;9.994;2022-07-03T01:05:38;6.78;;;3.10;;
34739;SDS011;20967;48.442;9.994;2022-07-03T01:13:31;5.67;;;2.92;;
34739;SDS011;20967;48.442;9.994;2022-07-03T01:16:06;6.12;;;3.65;;
34739;SDS011;20967;48.442;9.994;2022-07-03T01:21:06;4.20;;;2.92;;
34739;SDS011;20967;48.442;9.994;2022-07-03T01:28:32;10.45;;;3.10;;
34739;SDS011;20967;48.442;9.994;2022-07-03T01:31:01;4.15;;;3.12;;
34739;SDS011;20967;48.442;9.994;2022-07-03T01:33:32;7.03;;;2.72;;
34739;SDS011;20967;48.442;9.994;2022-07-03T01:38:34;6.72;;;2.80;;
34739;SDS011;20967;48.442;9.994;2022-07-03T01:41:07;4.67;;;2.60;;
34739;SDS011;20967;48.442;9.994;2022-07-03T01:43:32;4.78;;;2.95;;
34739;SDS011;20967;48.442;9.994;2022-07-03T01:46:05;4.70;;;2.90;;
34739;SDS011;20967;48.442;9.994;2022-07-03T01:48:30;9.88;;;2.65;;
34739;SDS011;20967;48.442;9.994;2022-07-03T01:50:58;2.92;;;2.33;;
34739;SDS011;20967;48.442;9.994;2022-07-03T01:53:31;4.70;;;2.60;;
34739;SDS011;20967;48.442;9.994;2022-07-03T01:55:58;5.37;;;2.42;;
34739;SDS011;20967;48.442;9.994;2022-07-03T01:58:25;6.92;;;2.50;;
34739;SDS011;20967;48.442;9.994;2022-07-03T02:01:03;4.12;;;2.42;;
34739;SDS011;20967;48.442;9.994;2022-07-03T02:06:02;5.67;;;2.92;;
34739;SDS011;20967;48.442;9.994;2022-07-03T02:08:35;4.58;;;2.27;;
34739;SDS011;20967;48.442;9.994;2022-07-03T02:16:27;3.30;;;2.30;;
34739;SDS011;20967;48.442;9.994;2022-07-03T02:18:57;4.08;;;2.50;;
34739;SDS011;20967;48.442;9.994;2022-07-03T02:21:26;7.40;;;2.65;;
34739;SDS011;20967;48.442;9.994;2022-07-03T02:26:42;3.40;;;2.55;;
34739;SDS011;20967;48.442;9.994;2022-07-03T02:29:12;4.40;;;2.52;;
34739;SDS011;20967;48.442;9.994;2022-07-03T02:31:44;3.70;;;2.58;;
34739;SDS011;20967;48.442;9.994;2022-07-03T02:36:41;3.20;;;2.47;;
34739;SDS011;20967;48.442;9.994;2022-07-03T02:39:11;4.97;;;2.92;;
34739;SDS011;20967;48.442;9.994;2022-07-03T02:41:46;7.42;;;2.67;;
34739;SDS011;20967;48.442;9.994;2022-07-03T02:44:14;4.80;;;2.77;;
34739;SDS011;20967;48.442;9.994;2022-07-03T02:46:50;8.00;;;2.70;;
34739;SDS011;20967;48.442;9.994;2022-07-03T02:51:44;3.45;;;2.30;;
34739;SDS011;20967;48.442;9.994;2022-07-03T02:54:14;4.87;;;2.72;;
34739;SDS011;20967;48.442;9.994;2022-07-03T02:59:32;10.60;;;2.60;;
34739;SDS011;20967;48.442;9.994;2022-07-03T03:01:57;4.65;;;2.60;;
34739;SDS011;20967;48.442;9.994;2022-07-03T03:04:29;9.10;;;3.10;;
34739;SDS011;20967;48.442;9.994;2022-07-03T03:07:18;4.50;;;2.45;;
34739;SDS011;20967;48.442;9.994;2022-07-03T03:09:32;8.55;;;2.67;;
34739;SDS011;20967;48.442;9.994;2022-07-03T03:11:59;3.58;;;3.00;;
34739;SDS011;20967;48.442;9.994;2022-07-03T03:14:27;6.70;;;2.72;;
34739;SDS011;20967;48.442;9.994;2022-07-03T03:16:55;3.33;;;2.33;;
34739;SDS011;20967;48.442;9.994;2022-07-03T03:19:23;5.47;;;2.20;;
34739;SDS011;20967;48.442;9.994;2022-07-03T03:21:56;5.35;;;2.65;;
34739;SDS011;20967;48.442;9.994;2022-07-03T03:24:22;3.10;;;2.55;;
34739;SDS011;20967;48.442;9.994;2022-07-03T03:26:50;4.65;;;2.67;;
34739;SDS011;20967;48.442;9.994;2022-07-03T03:29:18;2.37;;;2.15;;
34739;SDS011;20967;48.442;9.994;2022-07-03T03:31:45;9.08;;;2.70;;
34739;SDS011;20967;48.442;9.994;2022-07-03T03:34:15;4.17;;;2.30;;
34739;SDS011;20967;48.442;9.994;2022-07-03T03:36:42;4.97;;;2.42;;
34739;SDS011;20967;48.442;9.994;2022-07-03T03:39:10;3.85;;;2.15;;
34739;SDS011;20967;48.442;9.994;2022-07-03T03:41:40;4.55;;;2.87;;
34739;SDS011;20967;48.442;9.994;2022-07-03T03:44:07;8.63;;;2.72;;
34739;SDS011;20967;48.442;9.994;2022-07-03T03:46:34;5.80;;;2.83;;
34739;SDS011;20967;48.442;9.994;2022-07-03T03:49:03;5.05;;;2.40;;
34739;SDS011;20967;48.442;9.994;2022-07-03T03:51:34;2.85;;;2.20;;
34739;SDS011;20967;48.442;9.994;2022-07-03T03:54:01;3.17;;;2.08;;
34739;SDS011;20967;48.442;9.994;2022-07-03T03:56:33;5.50;;;1.82;;
34739;SDS011;20967;48.442;9.994;2022-07-03T03:59:00;5.28;;;2.10;;
34739;SDS011;20967;48.442;9.994;2022-07-03T04:01:29;2.72;;;1.65;;
34739;SDS011;20967;48.442;9.994;2022-07-03T04:03:57;1.70;;;1.50;;
34739;SDS011;20967;48.442;9.994;2022-07-03T04:06:26;4.72;;;1.80;;
34739;SDS011;20967;48.442;9.994;2022-07-03T04:08:53;9.25;;;1.80;;
34739;SDS011;20967;48.442;9.994;2022-07-03T04:11:21;3.02;;;1.95;;
34739;SDS011;20967;48.442;9.994;2022-07-03T04:13:50;2.15;;;1.60;;
34739;SDS011;20967;48.442;9.994;2022-07-03T04:16:17;2.05;;;1.37;;
34739;SDS011;20967;48.442;9.994;2022-07-03T04:18:46;6.17;;;1.62;;
34739;SDS011;20967;48.442;9.994;2022-07-03T04:21:15;5.05;;;1.57;;
34739;SDS011;20967;48.442;9.994;2022-07-03T04:23:43;5.78;;;1.37;;
34739;SDS011;20967;48.442;9.994;2022-07-03T04:26:13;1.80;;;1.30;;
34739;SDS011;20967;48.442;9.994;2022-07-03T04:28:40;3.15;;;1.50;;
34739;SDS011;20967;48.442;9.994;2022-07-03T04:31:08;6.10;;;1.62;;
34739;SDS011;20967;48.442;9.994;2022-07-03T04:33:35;2.35;;;1.57;;
34739;SDS011;20967;48.442;9.994;2022-07-03T04:36:03;3.05;;;1.50;;
34739;SDS011;20967;48.442;9.994;2022-07-03T04:38:31;3.22;;;1.40;;
34739;SDS011;20967;48.442;9.994;2022-07-03T04:40:58;3.70;;;1.50;;
34739;SDS011;20967;48.442;9.994;2022-07-03T04:43:26;2.08;;;1.52;;
34739;SDS011;20967;48.442;9.994;2022-07-03T04:45:53;2.72;;;1.12;;
34739;SDS011;20967;48.442;9.994;2022-07-03T04:48:23;3.90;;;1.25;;
34739;SDS011;20967;48.442;9.994;2022-07-03T04:50:51;2.15;;;1.17;;
34739;SDS011;20967;48.442;9.994;2022-07-03T04:53:18;2.77;;;1.40;;
34739;SDS011;20967;48.442;9.994;2022-07-03T04:55:46;6.47;;;1.57;;
34739;SDS011;20967;48.442;9.994;2022-07-03T04:58:14;4.08;;;1.22;;
34739;SDS011;20967;48.442;9.994;2022-07-03T05:00:42;1.98;;;1.20;;
34739;SDS011;20967;48.442;9.994;2022-07-03T05:03:10;3.02;;;1.30;;
34739;SDS011;20967;48.442;9.994;2022-07-03T05:05:38;3.67;;;1.50;;
34739;SDS011;20967;48.442;9.994;2022-07-03T05:08:10;5.00;;;1.30;;
34739;SDS011;20967;48.442;9.994;2022-07-03T05:10:39;2.70;;;1.40;;
34739;SDS011;20967;48.442;9.994;2022-07-03T05:13:09;3.15;;;1.35;;
34739;SDS011;20967;48.442;9.994;2022-07-03T05:15:37;5.30;;;1.32;;
34739;SDS011;20967;48.442;9.994;2022-07-03T05:18:05;5.60;;;1.45;;
34739;SDS011;20967;48.442;9.994;2022-07-03T05:20:36;2.98;;;1.25;;
34739;SDS011;20967;48.442;9.994;2022-07-03T05:23:03;3.67;;;1.30;;
34739;SDS011;20967;48.442;9.994;2022-07-03T05:25:31;9.63;;;2.80;;
34739;SDS011;20967;48.442;9.994;2022-07-03T05:28:00;2.58;;;1.10;;
34739;SDS011;20967;48.442;9.994;2022-07-03T05:30:27;1.70;;;1.20;;
34739;SDS011;20967;48.442;9.994;2022-07-03T05:32:55;2.37;;;1.20;;
34739;SDS011;20967;48.442;9.994;2022-07-03T05:35:22;1.25;;;1.00;;
34739;SDS011;20967;48.442;9.994;2022-07-03T05:37:50;2.05;;;1.12;;
34739;SDS011;20967;48.442;9.994;2022-07-03T05:40:17;1.22;;;0.90;;
34739;SDS011;20967;48.442;9.994;2022-07-03T05:42:45;3.27;;;1.12;;
34739;SDS011;20967;48.442;9.994;2022-07-03T05:45:12;1.00;;;0.90;;
34739;SDS011;20967;48.442;9.994;2022-07-03T05:47:41;1.50;;;0.80;;
34739;SDS011;20967;48.442;9.994;2022-07-03T05:50:09;1.47;;;0.78;;
34739;SDS011;20967;48.442;9.994;2022-07-03T05:52:37;1.10;;;0.98;;
34739;SDS011;20967;48.442;9.994;2022-07-03T05:55:04;2.27;;;1.00;;
34739;SDS011;20967;48.442;9.994;2022-07-03T05:57:32;2.50;;;0.90;;
34739;SDS011;20967;48.442;9.994;2022-07-03T06:00:03;1.42;;;1.05;;
34739;SDS011;20967;48.442;9.994;2022-07-03T06:02:35;4.87;;;0.88;;
34739;SDS011;20967;48.442;9.994;2022-07-03T06:05:06;4.53;;;1.02;;
34739;SDS011;20967;48.442;9.994;2022-07-03T06:07:38;0.82;;;0.72;;
34739;SDS011;20967;48.442;9.994;2022-07-03T06:10:06;1.85;;;0.93;;
34739;SDS011;20967;48.442;9.994;2022-07-03T06:12:41;1.30;;;0.90;;
34739;SDS011;20967;48.442;9.994;2022-07-03T06:15:13;1.85;;;1.00;;
34739;SDS011;20967;48.442;9.994;2022-07-03T06:17:41;1.95;;;0.90;;
34739;SDS011;20967;48.442;9.994;2022-07-03T06:20:10;1.57;;;1.10;;
34739;SDS011;20967;48.442;9.994;2022-07-03T06:22:38;3.65;;;1.10;;
34739;SDS011;20967;48.442;9.994;2022-07-03T06:25:06;2.52;;;0.75;;
34739;SDS011;20967;48.442;9.994;2022-07-03T06:27:36;2.70;;;0.90;;
34739;SDS011;20967;48.442;9.994;2022-07-03T06:30:03;3.62;;;1.02;;
34739;SDS011;20967;48.442;9.994;2022-07-03T06:32:31;2.12;;;1.10;;
34739;SDS011;20967;48.442;9.994;2022-07-03T06:34:58;2.35;;;1.20;;
34739;SDS011;20967;48.442;9.994;2022-07-03T06:37:26;2.25;;;1.17;;
34739;SDS011;20967;48.442;9.994;2022-07-03T06:39:53;3.27;;;1.15;;
34739;SDS011;20967;48.442;9.994;2022-07-03T06:42:21;1.60;;;0.95;;
34739;SDS011;20967;48.442;9.994;2022-07-03T06:44:48;1.82;;;1.07;;
34739;SDS011;20967;48.442;9.994;2022-07-03T06:47:16;5.35;;;1.05;;
34739;SDS011;20967;48.442;9.994;2022-07-03T06:49:43;1.92;;;1.07;;
34739;SDS011;20967;48.442;9.994;2022-07-03T06:52:12;2.17;;;0.90;;
34739;SDS011;20967;48.442;9.994;2022-07-03T06:54:41;1.85;;;1.10;;
34739;SDS011;20967;48.442;9.994;2022-07-03T06:57:10;3.98;;;1.35;;
34739;SDS011;20967;48.442;9.994;2022-07-03T06:59:38;3.17;;;1.40;;
34739;SDS011;20967;48.442;9.994;2022-07-03T07:02:08;8.95;;;1.20;;
34739;SDS011;20967;48.442;9.994;2022-07-03T07:04:37;2.55;;;1.12;;
34739;SDS011;20967;48.442;9.994;2022-07-03T07:07:04;2.47;;;1.20;;
34739;SDS011;20967;48.442;9.994;2022-07-03T07:09:32;1.67;;;1.10;;
34739;SDS011;20967;48.442;9.994;2022-07-03T07:12:02;2.20;;;1.10;;
34739;SDS011;20967;48.442;9.994;2022-07-03T07:14:29;2.10;;;1.47;;
34739;SDS011;20967;48.442;9.994;2022-07-03T07:16:56;1.47;;;1.30;;
34739;SDS011;20967;48.442;9.994;2022-07-03T07:19:24;2.17;;;1.10;;
34739;SDS011;20967;48.442;9.994;2022-07-03T07:21:51;1.98;;;1.50;;
34739;SDS011;20967;48.442;9.994;2022-07-03T07:24:19;1.55;;;1.30;;
34739;SDS011;20967;48.442;9.994;2022-07-03T07:26:47;2.47;;;1.25;;
34739;SDS011;20967;48.442;9.994;2022-07-03T07:29:14;2.98;;;1.20;;
34739;SDS011;20967;48.442;9.994;2022-07-03T07:31:42;9.30;;;1.55;;
34739;SDS011;20967;48.442;9.994;2022-07-03T07:34:09;5.35;;;1.20;;
34739;SDS011;20967;48.442;9.994;2022-07-03T07:36:37;6.92;;;1.40;;
34739;SDS011;20967;48.442;9.994;2022-07-03T07:39:04;6.25;;;1.12;;
34739;SDS011;20967;48.442;9.994;2022-07-03T07:41:32;2.45;;;1.32;;
34739;SDS011;20967;48.442;9.994;2022-07-03T07:44:00;2.45;;;1.45;;
34739;SDS011;20967;48.442;9.994;2022-07-03T07:46:28;1.55;;;1.15;;
34739;SDS011;20967;48.442;9.994;2022-07-03T07:48:55;1.87;;;1.22;;
34739;SDS011;20967;48.442;9.994;2022-07-03T07:51:23;4.47;;;1.57;;
34739;SDS011;20967;48.442;9.994;2022-07-03T07:53:50;3.27;;;1.37;;
34739;SDS011;20967;48.442;9.994;2022-07-03T07:56:20;4.30;;;1.67;;
34739;SDS011;20967;48.442;9.994;2022-07-03T07:58:47;9.20;;;1.70;;
34739;SDS011;20967;48.442;9.994;2022-07-03T08:01:15;6.17;;;2.00;;
34739;SDS011;20967;48.442;9.994;2022-07-03T08:04:00;1.85;;;1.25;;
34739;SDS011;20967;48.442;9.994;2022-07-03T08:06:49;6.47;;;1.72;;
34739;SDS011;20967;48.442;9.994;2022-07-03T08:09:16;5.37;;;1.30;;
34739;SDS011;20967;48.442;9.994;2022-07-03T08:11:44;2.92;;;1.60;;
34739;SDS011;20967;48.442;9.994;2022-07-03T08:14:11;4.72;;;2.02;;
34739;SDS011;20967;48.442;9.994;2022-07-03T08:16:39;5.12;;;2.45;;
34739;SDS011;20967;48.442;9.994;2022-07-03T08:19:07;3.95;;;1.17;;
34739;SDS011;20967;48.442;9.994;2022-07-03T08:21:35;2.40;;;1.20;;
34739;SDS011;20967;48.442;9.994;2022-07-03T08:24:02;3.85;;;1.52;;
34739;SDS011;20967;48.442;9.994;2022-07-03T08:26:30;2.22;;;1.10;;
34739;SDS011;20967;48.442;9.994;2022-07-03T08:28:57;2.27;;;0.80;;
34739;SDS011;20967;48.442;9.994;2022-07-03T08:31:25;2.87;;;1.12;;
34739;SDS011;20967;48.442;9.994;2022-07-03T08:33:52;4.03;;;1.10;;
34739;SDS011;20967;48.442;9.994;2022-07-03T08:36:22;1.82;;;0.60;;
34739;SDS011;20967;48.442;9.994;2022-07-03T08:38:49;3.27;;;0.65;;
34739;SDS011;20967;48.442;9.994;2022-07-03T08:41:18;2.62;;;0.90;;
34739;SDS011;20967;48.442;9.994;2022-07-03T08:43:46;1.95;;;1.00;;
34739;SDS011;20967;48.442;9.994;2022-07-03T08:46:14;1.10;;;0.53;;
34739;SDS011;20967;48.442;9.994;2022-07-03T08:48:42;0.90;;;0.78;;
34739;SDS011;20967;48.442;9.994;2022-07-03T08:51:10;0.80;;;0.78;;
34739;SDS011;20967;48.442;9.994;2022-07-03T08:53:40;1.85;;;0.70;;
34739;SDS011;20967;48.442;9.994;2022-07-03T08:56:07;3.08;;;0.70;;
34739;SDS011;20967;48.442;9.994;2022-07-03T08:58:36;1.00;;;0.62;;
34739;SDS011;20967;48.442;9.994;2022-07-03T09:01:05;0.80;;;0.60;;
34739;SDS011;20967;48.442;9.994;2022-07-03T09:03:34;3.42;;;0.90;;
34739;SDS011;20967;48.442;9.994;2022-07-03T09:06:01;1.07;;;0.70;;
34739;SDS011;20967;48.442;9.994;2022-07-03T09:08:29;1.72;;;0.78;;
34739;SDS011;20967;48.442;9.994;2022-07-03T09:10:58;0.85;;;0.60;;
34739;SDS011;20967;48.442;9.994;2022-07-03T09:13:26;2.55;;;0.80;;
34739;SDS011;20967;48.442;9.994;2022-07-03T09:15:53;1.65;;;1.00;;
34739;SDS011;20967;48.442;9.994;2022-07-03T09:18:40;9.80;;;0.80;;
34739;SDS011;20967;48.442;9.994;2022-07-03T09:21:08;1.67;;;0.90;;
34739;SDS011;20967;48.442;9.994;2022-07-03T09:23:36;4.05;;;0.72;;
34739;SDS011;20967;48.442;9.994;2022-07-03T09:26:04;2.98;;;0.70;;
34739;SDS011;20967;48.442;9.994;2022-07-03T09:28:45;2.05;;;1.00;;
34739;SDS011;20967;48.442;9.994;2022-07-03T09:31:15;2.40;;;1.10;;
34739;SDS011;20967;48.442;9.994;2022-07-03T09:34:02;0.47;;;0.47;;
34739;SDS011;20967;48.442;9.994;2022-07-03T09:36:39;1.23;;;0.60;;
34739;SDS011;20967;48.442;9.994;2022-07-03T09:41:49;0.80;;;0.50;;
34739;SDS011;20967;48.442;9.994;2022-07-03T09:44:03;0.50;;;0.45;;
34739;SDS011;20967;48.442;9.994;2022-07-03T09:46:30;0.72;;;0.40;;
34739;SDS011;20967;48.442;9.994;2022-07-03T09:49:00;2.33;;;0.57;;
34739;SDS011;20967;48.442;9.994;2022-07-03T09:51:27;0.85;;;0.50;;
34739;SDS011;20967;48.442;9.994;2022-07-03T09:53:58;5.87;;;0.60;;
34739;SDS011;20967;48.442;9.994;2022-07-03T09:56:27;0.80;;;0.55;;
34739;SDS011;20967;48.442;9.994;2022-07-03T09:59:03;0.68;;;0.50;;
34739;SDS011;20967;48.442;9.994;2022-07-03T10:04:19;1.22;;;0.70;;
34739;SDS011;20967;48.442;9.994;2022-07-03T10:06:27;4.33;;;1.00;;
34739;SDS011;20967;48.442;9.994;2022-07-03T10:08:55;0.85;;;0.70;;
34739;SDS011;20967;48.442;9.994;2022-07-03T10:11:22;1.40;;;0.68;;
34739;SDS011;20967;48.442;9.994;2022-07-03T10:13:51;5.72;;;1.87;;
34739;SDS011;20967;48.442;9.994;2022-07-03T10:16:19;0.80;;;0.70;;
34739;SDS011;20967;48.442;9.994;2022-07-03T10:18:47;1.00;;;0.60;;
34739;SDS011;20967;48.442;9.994;2022-07-03T10:21:15;1.37;;;0.80;;
34739;SDS011;20967;48.442;9.994;2022-07-03T10:23:43;0.90;;;0.72;;
34739;SDS011;20967;48.442;9.994;2022-07-03T10:26:13;2.02;;;0.70;;
34739;SDS011;20967;48.442;9.994;2022-07-03T10:28:40;3.52;;;1.07;;
34739;SDS011;20967;48.442;9.994;2022-07-03T10:31:08;0.70;;;0.70;;
34739;SDS011;20967;48.442;9.994;2022-07-03T10:33:36;1.47;;;0.88;;
34739;SDS011;20967;48.442;9.994;2022-07-03T10:36:07;0.95;;;0.80;;
34739;SDS011;20967;48.442;9.994;2022-07-03T10:38:38;1.22;;;0.60;;
34739;SDS011;20967;48.442;9.994;2022-07-03T10:46:39;0.60;;;0.50;;
34739;SDS011;20967;48.442;9.994;2022-07-03T11:07:20;1.55;;;0.60;;
34739;SDS011;20967;48.442;9.994;2022-07-03T11:10:27;1.60;;;0.68;;
34739;SDS011;20967;48.442;9.994;2022-07-03T11:12:17;1.05;;;0.50;;
34739;SDS011;20967;48.442;9.994;2022-07-03T11:14:46;0.75;;;0.60;;
34739;SDS011;20967;48.442;9.994;2022-07-03T11:17:17;1.32;;;0.72;;
34739;SDS011;20967;48.442;9.994;2022-07-03T11:19:47;0.80;;;0.57;;
34739;SDS011;20967;48.442;9.994;2022-07-03T11:25:18;0.40;;;0.40;;
34739;SDS011;20967;48.442;9.994;2022-07-03T11:27:47;1.00;;;0.60;;
34739;SDS011;20967;48.442;9.994;2022-07-03T11:30:18;0.65;;;0.55;;
34739;SDS011;20967;48.442;9.994;2022-07-03T11:32:51;2.50;;;0.70;;
34739;SDS011;20967;48.442;9.994;2022-07-03T11:38:02;3.00;;;1.00;;
34739;SDS011;20967;48.442;9.994;2022-07-03T11:40:29;0.70;;;0.60;;
34739;SDS011;20967;48.442;9.994;2022-07-03T11:42:59;2.70;;;0.57;;
34739;SDS011;20967;48.442;9.994;2022-07-03T11:45:30;0.53;;;0.50;;
34739;SDS011;20967;48.442;9.994;2022-07-03T11:47:57;1.67;;;0.78;;
34739;SDS011;20967;48.442;9.994;2022-07-03T11:50:40;1.00;;;0.50;;
34739;SDS011;20967;48.442;9.994;2022-07-03T11:53:16;1.45;;;0.70;;
34739;SDS011;20967;48.442;9.994;2022-07-03T11:58:10;1.02;;;0.70;;
34739;SDS011;20967;48.442;9.994;2022-07-03T12:00:37;1.02;;;0.60;;
34739;SDS011;20967;48.442;9.994;2022-07-03T12:03:05;1.30;;;0.80;;
34739;SDS011;20967;48.442;9.994;2022-07-03T12:05:33;0.98;;;0.70;;
34739;SDS011;20967;48.442;9.994;2022-07-03T12:08:04;1.55;;;0.60;;
34739;SDS011;20967;48.442;9.994;2022-07-03T12:10:38;0.90;;;0.68;;
34739;SDS011;20967;48.442;9.994;2022-07-03T12:15:33;4.50;;;1.98;;
34739;SDS011;20967;48.442;9.994;2022-07-03T12:18:01;1.65;;;0.70;;
34739;SDS011;20967;48.442;9.994;2022-07-03T12:20:28;2.25;;;0.55;;
34739;SDS011;20967;48.442;9.994;2022-07-03T12:22:56;0.70;;;0.60;;
34739;SDS011;20967;48.442;9.994;2022-07-03T12:25:25;0.65;;;0.65;;
34739;SDS011;20967;48.442;9.994;2022-07-03T12:27:55;3.37;;;0.60;;
34739;SDS011;20967;48.442;9.994;2022-07-03T12:30:23;0.95;;;0.75;;
34739;SDS011;20967;48.442;9.994;2022-07-03T12:32:53;0.50;;;0.50;;
34739;SDS011;20967;48.442;9.994;2022-07-03T12:35:21;0.60;;;0.53;;
34739;SDS011;20967;48.442;9.994;2022-07-03T12:37:49;1.85;;;0.80;;
34739;SDS011;20967;48.442;9.994;2022-07-03T12:40:16;1.02;;;0.60;;
34739;SDS011;20967;48.442;9.994;2022-07-03T12:42:45;1.90;;;0.80;;
34739;SDS011;20967;48.442;9.994;2022-07-03T12:45:15;1.12;;;0.60;;
34739;SDS011;20967;48.442;9.994;2022-07-03T12:47:43;4.35;;;0.50;;
34739;SDS011;20967;48.442;9.994;2022-07-03T12:50:11;1.25;;;0.60;;
34739;SDS011;20967;48.442;9.994;2022-07-03T12:52:56;1.37;;;0.78;;
34739;SDS011;20967;48.442;9.994;2022-07-03T12:57:46;2.25;;;0.85;;
34739;SDS011;20967;48.442;9.994;2022-07-03T13:00:42;0.72;;;0.65;;
34739;SDS011;20967;48.442;9.994;2022-07-03T13:05:43;1.25;;;0.65;;
34739;SDS011;20967;48.442;9.994;2022-07-03T13:08:11;1.37;;;0.60;;
34739;SDS011;20967;48.442;9.994;2022-07-03T13:10:38;1.05;;;0.70;;
34739;SDS011;20967;48.442;9.994;2022-07-03T13:13:06;0.65;;;0.50;;
34739;SDS011;20967;48.442;9.994;2022-07-03T13:15:33;2.00;;;0.53;;
34739;SDS011;20967;48.442;9.994;2022-07-03T13:18:01;2.80;;;0.60;;
34739;SDS011;20967;48.442;9.994;2022-07-03T13:20:33;1.42;;;0.60;;
34739;SDS011;20967;48.442;9.994;2022-07-03T13:23:06;1.47;;;0.80;;
34739;SDS011;20967;48.442;9.994;2022-07-03T13:25:31;4.03;;;0.62;;
34739;SDS011;20967;48.442;9.994;2022-07-03T13:33:01;0.72;;;0.70;;
34739;SDS011;20967;48.442;9.994;2022-07-03T13:35:28;0.75;;;0.35;;
34739;SDS011;20967;48.442;9.994;2022-07-03T13:37:56;1.67;;;0.53;;
34739;SDS011;20967;48.442;9.994;2022-07-03T13:40:25;3.80;;;0.60;;
34739;SDS011;20967;48.442;9.994;2022-07-03T13:42:55;1.02;;;0.60;;
34739;SDS011;20967;48.442;9.994;2022-07-03T13:45:22;1.92;;;0.65;;
34739;SDS011;20967;48.442;9.994;2022-07-03T13:47:50;8.93;;;0.98;;
34739;SDS011;20967;48.442;9.994;2022-07-03T13:50:17;1.37;;;0.60;;
34739;SDS011;20967;48.442;9.994;2022-07-03T13:52:45;0.40;;;0.40;;
34739;SDS011;20967;48.442;9.994;2022-07-03T13:55:12;1.52;;;1.07;;
34739;SDS011;20967;48.442;9.994;2022-07-03T13:57:42;2.10;;;0.80;;
34739;SDS011;20967;48.442;9.994;2022-07-03T14:00:10;0.53;;;0.53;;
34739;SDS011;20967;48.442;9.994;2022-07-03T14:02:37;1.57;;;0.70;;
34739;SDS011;20967;48.442;9.994;2022-07-03T14:05:06;1.77;;;0.60;;
34739;SDS011;20967;48.442;9.994;2022-07-03T14:07:33;2.35;;;0.70;;
34739;SDS011;20967;48.442;9.994;2022-07-03T14:10:03;1.05;;;0.60;;
34739;SDS011;20967;48.442;9.994;2022-07-03T14:12:33;3.77;;;0.68;;
34739;SDS011;20967;48.442;9.994;2022-07-03T14:15:01;4.47;;;0.68;;
34739;SDS011;20967;48.442;9.994;2022-07-03T14:17:28;1.50;;;0.98;;
34739;SDS011;20967;48.442;9.994;2022-07-03T14:19:56;0.50;;;0.50;;
34739;SDS011;20967;48.442;9.994;2022-07-03T14:22:23;2.12;;;1.40;;
34739;SDS011;20967;48.442;9.994;2022-07-03T14:24:51;1.75;;;0.53;;
34739;SDS011;20967;48.442;9.994;2022-07-03T14:27:19;0.37;;;0.35;;
34739;SDS011;20967;48.442;9.994;2022-07-03T14:30:04;0.75;;;0.40;;
34739;SDS011;20967;48.442;9.994;2022-07-03T14:32:50;0.80;;;0.60;;
34739;SDS011;20967;48.442;9.994;2022-07-03T14:35:17;5.37;;;1.80;;
34739;SDS011;20967;48.442;9.994;2022-07-03T14:37:45;0.95;;;0.42;;
34739;SDS011;20967;48.442;9.994;2022-07-03T14:40:12;4.03;;;0.50;;
34739;SDS011;20967;48.442;9.994;2022-07-03T14:42:40;2.75;;;0.50;;
34739;SDS011;20967;48.442;9.994;2022-07-03T14:45:11;0.65;;;0.50;;
34739;SDS011;20967;48.442;9.994;2022-07-03T14:47:38;1.70;;;0.50;;
34739;SDS011;20967;48.442;9.994;2022-07-03T14:50:06;2.52;;;0.60;;
34739;SDS011;20967;48.442;9.994;2022-07-03T14:52:34;2.05;;;0.60;;
34739;SDS011;20967;48.442;9.994;2022-07-03T14:55:01;1.52;;;0.55;;
34739;SDS011;20967;48.442;9.994;2022-07-03T14:57:36;3.55;;;0.80;;
34739;SDS011;20967;48.442;9.994;2022-07-03T15:00:06;0.55;;;0.53;;
34739;SDS011;20967;48.442;9.994;2022-07-03T15:02:41;1.20;;;0.60;;
34739;SDS011;20967;48.442;9.994;2022-07-03T15:05:06;1.65;;;0.75;;
34739;SDS011;20967;48.442;9.994;2022-07-03T15:07:38;1.65;;;0.60;;
34739;SDS011;20967;48.442;9.994;2022-07-03T15:10:11;0.78;;;0.60;;
34739;SDS011;20967;48.442;9.994;2022-07-03T15:15:11;2.40;;;0.60;;
34739;SDS011;20967;48.442;9.994;2022-07-03T15:17:37;1.02;;;0.45;;
34739;SDS011;20967;48.442;9.994;2022-07-03T15:20:05;4.60;;;0.70;;
34739;SDS011;20967;48.442;9.994;2022-07-03T15:22:34;4.42;;;0.80;;
34739;SDS011;20967;48.442;9.994;2022-07-03T15:25:02;1.30;;;0.55;;
34739;SDS011;20967;48.442;9.994;2022-07-03T15:27:30;1.77;;;0.75;;
34739;SDS011;20967;48.442;9.994;2022-07-03T15:29:57;1.05;;;0.45;;
34739;SDS011;20967;48.442;9.994;2022-07-03T15:32:25;0.70;;;0.50;;
34739;SDS011;20967;48.442;9.994;2022-07-03T15:34:53;0.98;;;0.60;;
34739;SDS011;20967;48.442;9.994;2022-07-03T15:42:35;1.57;;;0.55;;
34739;SDS011;20967;48.442;9.994;2022-07-03T15:46:02;2.77;;;0.60;;
34739;SDS011;20967;48.442;9.994;2022-07-03T15:50:06;3.33;;;1.30;;
34739;SDS011;20967;48.442;9.994;2022-07-03T15:52:35;2.67;;;0.70;;
34739;SDS011;20967;48.442;9.994;2022-07-03T15:55:05;1.32;;;0.80;;
34739;SDS011;20967;48.442;9.994;2022-07-03T16:00:05;1.00;;;0.90;;
34739;SDS011;20967;48.442;9.994;2022-07-03T16:07:35;1.72;;;0.45;;
34739;SDS011;20967;48.442;9.994;2022-07-03T16:10:03;0.95;;;0.45;;
34739;SDS011;20967;48.442;9.994;2022-07-03T16:12:32;2.55;;;0.50;;
34739;SDS011;20967;48.442;9.994;2022-07-03T16:15:00;2.80;;;0.72;;
34739;SDS011;20967;48.442;9.994;2022-07-03T16:17:29;1.00;;;0.60;;
34739;SDS011;20967;48.442;9.994;2022-07-03T16:19:59;1.35;;;0.85;;
34739;SDS011;20967;48.442;9.994;2022-07-03T16:22:27;2.22;;;0.65;;
34739;SDS011;20967;48.442;9.994;2022-07-03T16:24:55;1.12;;;0.70;;
34739;SDS011;20967;48.442;9.994;2022-07-03T16:27:26;6.28;;;0.80;;
34739;SDS011;20967;48.442;9.994;2022-07-03T16:29:54;1.90;;;0.60;;
34739;SDS011;20967;48.442;9.994;2022-07-03T16:32:37;1.35;;;0.70;;
34739;SDS011;20967;48.442;9.994;2022-07-03T16:42:45;0.50;;;0.50;;
34739;SDS011;20967;48.442;9.994;2022-07-03T16:45:12;1.60;;;0.60;;
34739;SDS011;20967;48.442;9.994;2022-07-03T16:47:40;4.00;;;0.80;;